< < Back
Terminal Aerodrome Forecast


Current Version              Previous Versions:   1  2  3  4  5  6  7  8  9  

Terminal Aerodrome Forecast

997
FTUS42 KCAE 280234 AAB
TAFCAE
TAF AMD
KCAE 280234Z 2803/2824 11004KT P6SM SCT200
     FM280900 00000KT P6SM SCT015
     FM281400 VRB04KT P6SM SCT030
     FM281900 06005KT P6SM SCT040=

Latest METAR

740
SAUS80 KWBC 280300 RRA
MTRCAE
METAR KCAE 280256Z 13005KT 10SM SCT060 29/22 A2997 RMK AO2 SLP145
T02940222 53020


USA.gov is the U.S. government's official web portal to all federal, state and local government web resources and services.